Buoy 13516

sailwx.info

Track history (hours):
 
Tides and Currents Weather Stations Pressure Air Temp Water Temp Dewpoint Dewpoint Depression Visibility Wind Speed Wind Dir Waves Ship Positions

Ao Chao Yang 13516

Last reported at 2014-Jul-24 19:05 UTC. Time now 2014-Jul-24 20:09 UTC.
Position N 27°18' W 034°37'.

Length 20 m.

Type: Fishing. MMSI: 412469022.

Water temperature 26.2 ° C

Date/timePositionNaut miles runAvg speedWind from/ knotsBaromVisibWave heightAir tempDewpointWater temp
2014-Jul-24 19:05N 27°18' W 034°37'0 0.1 26.2
2014-Jul-24 17:39N 27°18' W 034°37'0 0.4 26.2
2014-Jul-24 17:26N 27°18' W 034°37'0 0.5 26.2
2014-Jul-24 16:36N 27°19' W 034°37'0 0.0 26.0
2014-Jul-24 14:53N 27°19' W 034°37'1 0.6 26.2
2014-Jul-24 13:41N 27°19' W 034°36'0 8.9 26.0
2014-Jul-24 13:38N 27°19' W 034°37'0 0.5 25.9
2014-Jul-24 12:44N 27°19' W 034°36'0 3.3 25.7
2014-Jul-24 12:38N 27°20' W 034°37'0 0.0 25.7
2014-Jul-24 12:03N 27°20' W 034°37'0 0.0 25.6
2014-Jul-24 12:00N 27°20' W 034°37'0 0.0 25.6
2014-Jul-24 11:57N 27°20' W 034°37'0 3.1 25.6
2014-Jul-24 11:53N 27°20' W 034°37'0 0.0 25.5
2014-Jul-24 11:06N 27°20' W 034°37'0 2.7 25.4
2014-Jul-24 11:02N 27°20' W 034°37'1 0.5 25.4
2014-Jul-24 09:44N 27°19' W 034°37'127.3 25.3
2014-Jul-24 09:41N 27°19' W 034°35'1 2.8 25.3
2014-Jul-24 09:17N 27°19' W 034°36'1 0.9 25.3
2014-Jul-24 08:02N 27°19' W 034°35'0 0.6 25.3
2014-Jul-24 07:39N 27°19' W 034°35'013.3 25.3
2014-Jul-24 07:38N 27°19' W 034°35'0 0.4 25.3
2014-Jul-24 06:26N 27°19' W 034°36'0 1.3 25.3
2014-Jul-24 06:20N 27°19' W 034°36'0 0.0 25.3
2014-Jul-24 06:05N 27°19' W 034°36'0 4.2 25.3
2014-Jul-24 06:02N 27°19' W 034°36'1 7.2 25.3
2014-Jul-24 05:57N 27°19' W 034°35'0 0.0 25.3
2014-Jul-24 05:08N 27°19' W 034°35'112.0 25.4
2014-Jul-24 05:05N 27°19' W 034°35'0 0.1 25.4
2014-Jul-24 03:35N 27°19' W 034°35'0 0.0 25.4
2014-Jul-24 03:32N 27°19' W 034°35'1 9.7 25.4
2014-Jul-24 03:26N 27°20' W 034°34'0 0.0 25.4
2014-Jul-24 01:11N 27°20' W 034°34'0 0.0 25.4
2014-Jul-24 00:26N 27°20' W 034°34'0 0.2 25.4
2014-Jul-23 23:38N 27°20' W 034°34'0 0.0 25.4
2014-Jul-23 23:33N 27°20' W 034°34'0 0.0 25.4
2014-Jul-23 22:45N 27°20' W 034°34'0 1.2 25.4
2014-Jul-23 22:39N 27°20' W 034°34'1 8.1 25.4
2014-Jul-23 22:35N 27°21' W 034°34'0 0.0 25.4
2014-Jul-23 22:06N 27°21' W 034°34'0 1.2 25.5
2014-Jul-23 21:51N 27°21' W 034°34'0 0.1 25.5
2014-Jul-23 20:20N 27°21' W 034°34'0 0.0 25.6
2014-Jul-23 19:47N 27°21' W 034°34'0 0.2 25.6
2014-Jul-23 19:17N 27°21' W 034°34'0 0.1 25.7
2014-Jul-23 18:06N 27°21' W 034°34'0 0.0 25.7
2014-Jul-23 17:36N 27°21' W 034°34'1 1.1 25.7
2014-Jul-23 16:45N 27°22' W 034°33'1 0.4 25.6
2014-Jul-23 15:06N 27°21' W 034°33'0 0.3 25.7
2014-Jul-23 13:59N 27°21' W 034°33'0 0.4 25.5
2014-Jul-23 13:08N 27°21' W 034°33'0 2.6 25.5
2014-Jul-23 13:00N 27°21' W 034°33'0 0.0 25.5
2014-Jul-23 12:23N 27°21' W 034°33'0 0.9 25.4
2014-Jul-23 12:15N 27°21' W 034°33'0 0.0 25.4
2014-Jul-23 11:27N 27°21' W 034°33'0 5.6 25.3
2014-Jul-23 11:24N 27°21' W 034°32'0 5.5 25.3
2014-Jul-23 11:21N 27°21' W 034°32'0 0.6 25.3
2014-Jul-23 10:39N 27°21' W 034°32'0 0.0 25.3
2014-Jul-23 09:47N 27°21' W 034°32'1 0.6 25.2
2014-Jul-23 08:26N 27°21' W 034°32'1 3.9 25.2
2014-Jul-23 08:08N 27°21' W 034°33'1 4.7 25.2
2014-Jul-23 07:53N 27°21' W 034°32'0 0.0 25.2
2014-Jul-23 07:48N 27°21' W 034°32'0 0.0 25.2
2014-Jul-23 06:51N 27°21' W 034°32'1 1.9 25.2
2014-Jul-23 06:29N 27°21' W 034°31'0 1.0 25.3
2014-Jul-23 06:17N 27°21' W 034°31'0 0.0 25.3
2014-Jul-23 06:14N 27°21' W 034°31'0 4.6 25.3
2014-Jul-23 06:08N 27°21' W 034°31'0 0.0 25.3
2014-Jul-23 05:23N 27°21' W 034°31'0 3.2 25.3
2014-Jul-23 05:15N 27°22' W 034°30'0 0.1 25.3
2014-Jul-23 03:47N 27°22' W 034°30'0 0.0 25.4
2014-Jul-23 03:42N 27°22' W 034°30'0 4.5 25.4
2014-Jul-23 03:38N 27°22' W 034°30'0 0.0 25.4
2014-Jul-23 00:45N 27°22' W 034°30'0 0.5 25.4
2014-Jul-22 23:51N 27°22' W 034°30'0 0.0 25.4
2014-Jul-22 23:06N 27°22' W 034°30'1 5.9 25.4
2014-Jul-22 23:00N 27°22' W 034°31'1 1.0 25.4
2014-Jul-22 22:18N 27°22' W 034°30'0 3.2 25.5
2014-Jul-22 22:15N 27°22' W 034°30'0 0.0
2014-Jul-22 22:08N 27°22' W 034°30'1 0.5 25.5
2014-Jul-22 20:53N 27°23' W 034°30'115.3 25.5
2014-Jul-22 20:50N 27°22' W 034°29'0 0.0 25.5
2014-Jul-22 20:11N 27°22' W 034°29'0 0.2 25.6
2014-Jul-22 19:29N 27°22' W 034°29'0 0.9 25.7
2014-Jul-22 19:12N 27°22' W 034°30'0 0.0 25.7
2014-Jul-22 18:30N 27°22' W 034°30'0 4.8 25.8
2014-Jul-22 18:29N 27°22' W 034°29'0 0.5 25.8
2014-Jul-22 17:48N 27°22' W 034°29'0 0.3 25.9
2014-Jul-22 16:57N 27°22' W 034°29'0 0.0 26.0
2014-Jul-22 16:53N 27°22' W 034°29'1 0.5 26.0
2014-Jul-22 15:17N 27°22' W 034°28'1 0.1 25.7
2014-Jul-22 11:48N 27°22' W 034°28'0 1.7 25.4
2014-Jul-22 11:42N 27°22' W 034°28'1 8.0 25.4
2014-Jul-22 11:38N 27°22' W 034°27'0 0.0
2014-Jul-22 11:02N 27°22' W 034°27'0 2.4 25.4
2014-Jul-22 10:59N 27°22' W 034°27'114.7 25.4
2014-Jul-22 10:56N 27°22' W 034°26'0 0.0 25.4
2014-Jul-22 08:53N 27°22' W 034°26'0 0.4 25.3
2014-Jul-22 08:03N 27°22' W 034°26'1 9.0 25.3
2014-Jul-22 07:59N 27°22' W 034°25'0 0.0 25.3
2014-Jul-22 07:14N 27°22' W 034°25'0 1.6 25.3
2014-Jul-22 07:02N 27°23' W 034°25'0 0.6 25.3
2014-Jul-22 06:27N 27°22' W 034°25'0 2.4 25.3
2014-Jul-22 06:24N 27°22' W 034°25'0 4.9 25.3
2014-Jul-22 06:18N 27°22' W 034°25'0 0.6 25.3
2014-Jul-22 05:32N 27°22' W 034°24'1 0.4 25.4
2014-Jul-22 03:53N 27°23' W 034°24'0 9.6 25.4
2014-Jul-22 03:50N 27°23' W 034°24'115.4 25.4
2014-Jul-22 03:45N 27°24' W 034°23'0 0.0 25.4
2014-Jul-22 01:05N 27°24' W 034°23'1 6.3 25.5
2014-Jul-22 01:00N 27°24' W 034°23'0 0.5 25.5
2014-Jul-22 00:18N 27°24' W 034°23'0 0.0 25.5
2014-Jul-21 23:23N 27°24' W 034°23'0 4.4 25.5
2014-Jul-21 23:20N 27°24' W 034°23'0 0.0 25.5
2014-Jul-21 22:38N 27°24' W 034°23'0 2.7 25.6
2014-Jul-21 22:30N 27°25' W 034°23'0 0.1 25.6
2014-Jul-21 21:41N 27°25' W 034°23'0 0.0 25.6
2014-Jul-21 21:32N 27°25' W 034°23'1 0.8 25.6
2014-Jul-21 20:35N 27°26' W 034°23'0 0.3 25.7
2014-Jul-21 19:51N 27°25' W 034°23'0 1.1 25.9
2014-Jul-21 19:38N 27°26' W 034°23'0 0.3 25.9
2014-Jul-21 18:53N 27°25' W 034°23'1 0.7 26.0
2014-Jul-21 18:00N 27°25' W 034°22'0 0.0 26.0
2014-Jul-21 17:11N 27°25' W 034°22'0 5.8 26.0
2014-Jul-21 17:06N 27°26' W 034°23'0 0.0 26.0
2014-Jul-21 16:17N 27°26' W 034°23'0 0.5 25.9
2014-Jul-21 15:29N 27°26' W 034°23'0 0.5 26.0
2014-Jul-21 15:23N 27°26' W 034°23'1 0.5 26.0
2014-Jul-21 13:48N 27°26' W 034°22'0 3.8 25.8
2014-Jul-21 13:42N 27°26' W 034°21'0 0.6 25.8
2014-Jul-21 13:05N 27°26' W 034°22'0 3.8 25.7
2014-Jul-21 12:59N 27°26' W 034°21'0 2.4 25.7
2014-Jul-21 12:53N 27°25' W 034°21'0 0.0
2014-Jul-21 12:08N 27°25' W 034°21'0 0.6 25.5
2014-Jul-21 12:02N 27°25' W 034°21'0 0.4 25.5
2014-Jul-21 11:23N 27°25' W 034°21'0 0.0 25.4
2014-Jul-21 10:29N 27°25' W 034°21'1 6.4 25.4
2014-Jul-21 10:23N 27°25' W 034°20'0 0.3
2014-Jul-21 09:17N 27°25' W 034°20'0 0.0 25.3
2014-Jul-21 09:12N 27°25' W 034°20'0 5.4 25.3
2014-Jul-21 09:08N 27°25' W 034°20'0 0.4 25.3
2014-Jul-21 08:17N 27°25' W 034°20'0 6.5 25.3
2014-Jul-21 08:14N 27°25' W 034°20'0 0.0 25.3
2014-Jul-21 08:11N 27°25' W 034°20'0 0.4 25.3
2014-Jul-21 07:36N 27°25' W 034°20'0 0.0 25.3
2014-Jul-21 07:33N 27°25' W 034°20'0 0.3 25.3
2014-Jul-21 06:36N 27°25' W 034°19'2 2.5 25.4
2014-Jul-21 05:59N 27°26' W 034°18'1 4.3 25.4
2014-Jul-21 05:47N 27°27' W 034°17'0 0.0 25.4
2014-Jul-21 05:44N 27°27' W 034°17'0 0.0 25.4
2014-Jul-21 05:39N 27°27' W 034°17'0 0.0 25.4
2014-Jul-21 04:08N 27°27' W 034°17'0 0.0 25.4
2014-Jul-21 04:05N 27°27' W 034°17'0 0.0 25.4
2014-Jul-21 03:57N 27°27' W 034°17'0 0.0
2014-Jul-21 01:24N 27°27' W 034°17'112.2 25.5
2014-Jul-21 01:21N 27°27' W 034°17'0 0.6 25.5
2014-Jul-21 00:38N 27°28' W 034°17'0 0.0 25.6
2014-Jul-20 23:45N 27°28' W 034°17'1 1.2
2014-Jul-20 22:53N 27°28' W 034°16'0 0.0 25.7
2014-Jul-20 22:48N 27°28' W 034°16'0 0.0 25.7
2014-Jul-20 22:06N 27°28' W 034°16'0 5.5 25.7
2014-Jul-20 22:02N 27°29' W 034°16'014.4 25.7
2014-Jul-20 22:00N 27°28' W 034°16'010.8 25.7
2014-Jul-20 21:59N 27°29' W 034°16'0 0.4 25.7
2014-Jul-20 20:57N 27°28' W 034°16'0 0.0 25.7
2014-Jul-20 20:14N 27°28' W 034°16'1 1.9 25.8
2014-Jul-20 19:50N 27°29' W 034°16'0 0.0 25.9
2014-Jul-20 19:21N 27°29' W 034°16'0 2.1 25.9
2014-Jul-20 19:14N 27°29' W 034°16'0 0.0 25.9
2014-Jul-20 18:08N 27°29' W 034°16'1 1.6 25.8
2014-Jul-20 17:39N 27°30' W 034°16'0 1.1 25.9
2014-Jul-20 17:18N 27°29' W 034°16'0 0.0 25.9
2014-Jul-20 17:15N 27°29' W 034°16'0 0.2 25.9
2014-Jul-20 16:27N 27°29' W 034°16'0 0.0 26.0
2014-Jul-20 15:38N 27°29' W 034°16'0 0.1 26.0
2014-Jul-20 14:08N 27°29' W 034°16'0 0.0 25.7
2014-Jul-20 13:53N 27°29' W 034°16'0 0.0 25.6
2014-Jul-20 13:21N 27°29' W 034°16'0 0.4 25.6
2014-Jul-20 12:29N 27°29' W 034°16'0 0.0 25.4
2014-Jul-20 12:23N 27°29' W 034°16'0 6.6 25.4
2014-Jul-20 12:21N 27°30' W 034°15'0 0.0 25.4
2014-Jul-20 11:42N 27°30' W 034°15'0 0.0 25.4
2014-Jul-20 11:38N 27°30' W 034°15'0 9.7
2014-Jul-20 11:35N 27°30' W 034°15'1 1.3 25.3
2014-Jul-20 10:50N 27°30' W 034°15'0 0.0 25.2
2014-Jul-20 10:42N 27°30' W 034°15'1 0.9 25.2
2014-Jul-20 09:42N 27°30' W 034°15'0 0.0 25.2
2014-Jul-20 09:39N 27°30' W 034°15'0 0.2 25.2
2014-Jul-20 08:27N 27°30' W 034°15'1 1.7 25.2
2014-Jul-20 08:05N 27°30' W 034°15'114.7 25.2
2014-Jul-20 08:02N 27°30' W 034°15'0 0.0 25.2
2014-Jul-20 06:50N 27°30' W 034°15'0 1.6 25.2
2014-Jul-20 06:47N 27°30' W 034°15'1 6.7 25.2
2014-Jul-20 06:42N 27°30' W 034°14'0 0.0 25.2
2014-Jul-20 06:38N 27°30' W 034°14'1 2.0
2014-Jul-20 06:23N 27°30' W 034°14'0 0.7 25.3
2014-Jul-20 05:53N 27°30' W 034°14'112.2 25.3
2014-Jul-20 05:50N 27°30' W 034°13'0 0.0 25.3
2014-Jul-20 05:08N 27°30' W 034°13'0 0.5 25.3
2014-Jul-20 04:18N 27°30' W 034°14'0 0.0 25.3
2014-Jul-20 04:15N 27°30' W 034°14'1 8.3 25.3
2014-Jul-20 04:08N 27°31' W 034°13'0 0.0 25.3
2014-Jul-20 00:57N 27°31' W 034°13'295.0 25.5
2014-Jul-20 00:56N 27°32' W 034°12'0 0.1 25.5
2014-Jul-20 00:08N 27°32' W 034°12'0 0.4 25.5
2014-Jul-19 23:20N 27°32' W 034°12'1 6.4 25.5
2014-Jul-19 23:12N 27°33' W 034°13'0 0.0 25.5
2014-Jul-19 22:30N 27°33' W 034°13'0 3.2 25.5
2014-Jul-19 22:23N 27°34' W 034°13'0 0.0 25.6
2014-Jul-19 20:44N 27°34' W 034°13'0 0.2 25.8
2014-Jul-19 20:00N 27°34' W 034°13'0 1.3 26.0
2014-Jul-19 19:45N 27°34' W 034°13'0 0.4 26.0
2014-Jul-19 19:12N 27°34' W 034°13'0 4.0 26.1
2014-Jul-19 19:06N 27°34' W 034°13'0 0.0 26.1
2014-Jul-19 18:23N 27°34' W 034°13'0 0.9 26.3
2014-Jul-19 18:05N 27°34' W 034°14'0 0.1 26.1
2014-Jul-19 17:29N 27°34' W 034°13'0 0.3 26.2
2014-Jul-19 16:38N 27°34' W 034°14'0 0.4 26.3
2014-Jul-19 15:51N 27°34' W 034°14'1 0.3 25.9
2014-Jul-19 13:36N 27°35' W 034°14'0 0.6 27.3
2014-Jul-19 12:47N 27°35' W 034°13'0 0.2 26.3
2014-Jul-19 12:03N 27°35' W 034°13'0 4.3 25.8
2014-Jul-19 11:57N 27°35' W 034°13'0 0.1 25.8
2014-Jul-19 11:08N 27°35' W 034°13'115.9 25.4
2014-Jul-19 11:05N 27°36' W 034°14'0 0.0 25.4
2014-Jul-19 08:38N 27°36' W 034°14'0 1.6 25.3
2014-Jul-19 08:26N 27°36' W 034°13'0 0.3 25.3
2014-Jul-19 06:59N 27°35' W 034°13'0 1.7 25.3
2014-Jul-19 06:53N 27°35' W 034°14'0 0.0 25.3
2014-Jul-19 06:41N 27°35' W 034°14'0 0.0 25.3
2014-Jul-19 06:08N 27°35' W 034°14'0 1.1 25.4
2014-Jul-19 06:05N 27°35' W 034°14'0 0.2 25.4
2014-Jul-19 05:20N 27°35' W 034°14'1 8.0 25.4
2014-Jul-19 05:12N 27°35' W 034°12'0 0.1 25.4
2014-Jul-19 04:27N 27°35' W 034°12'111.8 25.4
2014-Jul-19 04:21N 27°36' W 034°12'0 0.0 25.4
2014-Jul-19 04:18N 27°36' W 034°12'0 0.0 25.4
2014-Jul-19 02:41N 27°36' W 034°12'0 0.1 25.4
2014-Jul-19 00:23N 27°36' W 034°12'0 0.6 25.5
2014-Jul-18 23:41N 27°36' W 034°12'0 0.0 25.5
2014-Jul-18 23:36N 27°36' W 034°12'0 5.1 25.5
2014-Jul-18 23:32N 27°37' W 034°12'0 0.0 25.5
2014-Jul-18 22:48N 27°37' W 034°12'0 5.6 25.5
2014-Jul-18 22:44N 27°37' W 034°12'0 3.6 25.5
2014-Jul-18 22:38N 27°37' W 034°12'0 0.2 25.5
2014-Jul-18 21:56N 27°37' W 034°12'0 0.1
2014-Jul-18 20:06N 27°37' W 034°12'0 0.0 25.7
2014-Jul-18 19:36N 27°37' W 034°12'0 0.1 25.7
2014-Jul-18 18:35N 27°37' W 034°13'0 0.6 25.9
2014-Jul-18 18:30N 27°37' W 034°12'0 0.4 25.9
2014-Jul-18 17:39N 27°37' W 034°13'0 0.3 26.0
2014-Jul-18 16:51N 27°37' W 034°13'0 0.3 26.0
2014-Jul-18 16:02N 27°37' W 034°13'1 0.3 25.9
2014-Jul-18 14:20N 27°37' W 034°12'0 0.2 25.7
2014-Jul-18 12:23N 27°37' W 034°12'0 3.7 25.5
2014-Jul-18 12:17N 27°38' W 034°12'0 0.1 25.5
2014-Jul-18 11:29N 27°38' W 034°12'0 1.2 25.4
2014-Jul-18 11:26N 27°38' W 034°12'0 0.6 25.4
2014-Jul-18 10:44N 27°38' W 034°12'0 0.6 25.4
2014-Jul-18 10:39N 27°38' W 034°12'0 0.0 25.4
2014-Jul-18 09:06N 27°38' W 034°12'0 0.6 25.4
2014-Jul-18 08:53N 27°38' W 034°12'0 7.9 25.4
2014-Jul-18 08:50N 27°39' W 034°12'0 0.1 25.4
2014-Jul-18 07:27N 27°39' W 034°12'0 0.3 25.4
2014-Jul-18 07:08N 27°39' W 034°12'114.6 25.4
2014-Jul-18 07:05N 27°38' W 034°13'0 0.0 25.4
2014-Jul-18 06:18N 27°38' W 034°13'0 2.6 25.4
2014-Jul-18 06:12N 27°38' W 034°13'0 0.0 25.4
2014-Jul-18 05:32N 27°38' W 034°13'0 0.0 25.4
2014-Jul-18 05:29N 27°38' W 034°13'0 0.2 25.4
2014-Jul-18 04:38N 27°38' W 034°13'1 7.0 25.5
2014-Jul-18 04:32N 27°38' W 034°12'1 0.3 25.5
2014-Jul-18 02:53N 27°38' W 034°12'125.6 25.5
2014-Jul-18 02:51N 27°38' W 034°11'0 0.0 25.5
2014-Jul-18 00:48N 27°38' W 034°11'0 0.5 25.7
2014-Jul-17 23:59N 27°38' W 034°11'0 2.4
2014-Jul-17 23:56N 27°38' W 034°11'0 9.4 25.7
2014-Jul-17 23:53N 27°39' W 034°11'0 0.0 25.7
2014-Jul-17 23:08N 27°39' W 034°11'0 1.5 25.7
2014-Jul-17 23:00N 27°39' W 034°10'0 0.0 25.7
2014-Jul-17 22:21N 27°39' W 034°10'0 0.6 25.8
2014-Jul-17 21:53N 27°39' W 034°10'1 1.4 25.9
2014-Jul-17 21:23N 27°39' W 034°11'0 0.0
2014-Jul-17 20:06N 27°39' W 034°11'0 0.2
2014-Jul-17 18:53N 27°40' W 034°11'0 2.3 26.2
2014-Jul-17 18:45N 27°39' W 034°11'0 0.0 26.2
2014-Jul-17 17:47N 27°39' W 034°11'0 0.0 26.3
2014-Jul-17 17:03N 27°39' W 034°11'0 0.4 26.3
2014-Jul-17 16:08N 27°39' W 034°10'0 0.3 26.2
2014-Jul-17 14:30N 27°39' W 034°11'1 0.3 25.7
2014-Jul-17 12:45N 27°39' W 034°10'0 0.5 25.4
2014-Jul-17 11:45N 27°40' W 034°10'0 0.0 25.2
2014-Jul-17 11:05N 27°40' W 034°10'0 0.8 25.1
2014-Jul-17 10:59N 27°40' W 034°10'0 0.0 25.1
2014-Jul-17 10:08N 27°40' W 034°10'0 0.3 25.1
2014-Jul-17 09:17N 27°40' W 034°10'0 0.1 25.1
2014-Jul-17 07:53N 27°40' W 034°10'0 0.2 25.1
2014-Jul-17 07:33N 27°40' W 034°10'0 0.7 25.1
2014-Jul-17 07:21N 27°40' W 034°10'0 2.1 25.1
2014-Jul-17 07:18N 27°40' W 034°10'0 6.4 25.1
2014-Jul-17 07:15N 27°40' W 034°10'0 0.0 25.1
2014-Jul-17 06:29N 27°40' W 034°10'1 5.6 25.1
2014-Jul-17 06:23N 27°40' W 034°10'0 0.0
2014-Jul-17 06:17N 27°40' W 034°10'0 0.5 25.1
2014-Jul-17 05:57N 27°40' W 034°10'0 1.2 25.1
2014-Jul-17 05:41N 27°40' W 034°10'0 1.6 25.1
2014-Jul-17 05:35N 27°40' W 034°10'0 0.0 25.1
2014-Jul-17 04:48N 27°40' W 034°10'0 3.2 25.2
2014-Jul-17 04:42N 27°39' W 034°10'0 0.0 25.2
2014-Jul-17 03:08N 27°39' W 034°10'0 3.5 25.2
2014-Jul-17 03:03N 27°39' W 034°10'0 0.0 25.2
2014-Jul-17 01:08N 27°39' W 034°10'113.7 25.4
2014-Jul-17 01:05N 27°40' W 034°09'0 0.3 25.4
2014-Jul-17 00:21N 27°40' W 034°09'0 0.0 25.4
2014-Jul-16 23:30N 27°40' W 034°09'0 0.0 25.4
2014-Jul-16 23:23N 27°40' W 034°09'1 0.7 25.5
2014-Jul-16 22:38N 27°40' W 034°09'1 6.6 25.4
2014-Jul-16 22:33N 27°40' W 034°08'0 1.1 25.4
2014-Jul-16 22:24N 27°40' W 034°08'0 0.3 25.4
2014-Jul-16 21:48N 27°40' W 034°08'114.0 25.5
2014-Jul-16 21:44N 27°41' W 034°08'0 0.3 25.5
2014-Jul-16 20:56N 27°41' W 034°07'1 4.9 25.7
2014-Jul-16 20:47N 27°40' W 034°07'1 4.9 25.7
2014-Jul-16 20:38N 27°41' W 034°07'0 0.0 25.8
2014-Jul-16 19:20N 27°41' W 034°07'0 2.4 25.8
2014-Jul-16 19:12N 27°41' W 034°08'0 0.0 25.8
2014-Jul-16 18:53N 27°41' W 034°08'0 0.0 25.8
2014-Jul-16 18:51N 27°41' W 034°08'0 0.3 25.9
2014-Jul-16 17:38N 27°41' W 034°07'1 1.3 26.3
2014-Jul-16 17:15N 27°41' W 034°08'0 0.5 26.3
2014-Jul-16 16:23N 27°41' W 034°07'0 0.0 26.3
2014-Jul-16 16:18N 27°41' W 034°07'0 0.3 26.3
2014-Jul-16 14:42N 27°41' W 034°07'0 0.2 26.0
2014-Jul-16 13:06N 27°42' W 034°07'0 1.1 25.4
2014-Jul-16 13:00N 27°42' W 034°07'0 0.2 25.4
2014-Jul-16 12:08N 27°42' W 034°07'0 5.8 25.1
2014-Jul-16 12:05N 27°42' W 034°07'0 0.1 25.1
2014-Jul-16 11:21N 27°42' W 034°07'014.4
2014-Jul-16 11:20N 27°42' W 034°07'0 0.0 25.0
2014-Jul-16 10:32N 27°42' W 034°07'0 5.2 24.8
2014-Jul-16 10:27N 27°42' W 034°07'0 0.0 24.8
2014-Jul-16 09:38N 27°42' W 034°07'1 0.4 24.8
2014-Jul-16 07:33N 27°42' W 034°06'0 0.0 24.7
2014-Jul-16 07:30N 27°42' W 034°06'1 7.8 24.7
2014-Jul-16 07:26N 27°42' W 034°07'0 0.0 24.7
2014-Jul-16 06:50N 27°42' W 034°07'0 0.9 24.8
2014-Jul-16 06:21N 27°42' W 034°07'0 0.1 24.8
2014-Jul-16 05:53N 27°42' W 034°07'0 0.1 24.8
2014-Jul-16 05:03N 27°42' W 034°07'0 1.1 24.8
2014-Jul-16 05:00N 27°42' W 034°07'0 2.4 24.8
2014-Jul-16 04:51N 27°42' W 034°06'0 0.0 24.8
2014-Jul-16 03:23N 27°42' W 034°06'0 0.0 24.9
2014-Jul-16 03:20N 27°42' W 034°06'1 5.2 24.9
2014-Jul-16 03:14N 27°42' W 034°06'0 0.0 24.9
2014-Jul-16 01:26N 27°42' W 034°06'1 0.7 25.1
2014-Jul-16 00:42N 27°43' W 034°06'0 0.1 25.1
2014-Jul-15 23:51N 27°43' W 034°06'0 0.3 25.2
2014-Jul-15 23:03N 27°43' W 034°05'0 0.0 25.2
2014-Jul-15 22:08N 27°43' W 034°05'117.6 25.3
2014-Jul-15 22:05N 27°43' W 034°05'0 0.1 25.3
2014-Jul-15 21:08N 27°43' W 034°05'0 0.0
2014-Jul-15 19:44N 27°43' W 034°05'0 1.1 25.6
2014-Jul-15 19:33N 27°44' W 034°05'0 0.0 25.7
2014-Jul-15 19:08N 27°44' W 034°05'0 0.3 25.7
2014-Jul-15 18:02N 27°43' W 034°05'0 0.7 25.9
2014-Jul-15 17:27N 27°44' W 034°04'0 4.0 25.7
2014-Jul-15 17:23N 27°44' W 034°05'0 0.3 25.6
2014-Jul-15 16:35N 27°44' W 034°04'1 0.5 25.5
2014-Jul-15 14:53N 27°44' W 034°04'0 0.0 25.4
2014-Jul-15 14:11N 27°44' W 034°04'0 0.0 25.2
2014-Jul-15 13:23N 27°44' W 034°04'0 0.3 25.1
2014-Jul-15 12:29N 27°45' W 034°04'0 3.6 25.0
2014-Jul-15 12:23N 27°45' W 034°04'0 0.0
2014-Jul-15 11:47N 27°45' W 034°04'0 2.4 24.8
2014-Jul-15 11:39N 27°45' W 034°04'0 0.0 24.8
2014-Jul-15 10:53N 27°45' W 034°04'1 7.2 24.7
2014-Jul-15 10:48N 27°45' W 034°05'1 0.4 24.7
2014-Jul-15 09:00N 27°45' W 034°04'0 0.7 24.7
2014-Jul-15 08:26N 27°45' W 034°04'0 0.1 24.7
2014-Jul-15 07:42N 27°45' W 034°04'0 0.0 24.7
2014-Jul-15 07:21N 27°45' W 034°04'0 0.4 24.7
2014-Jul-15 06:45N 27°46' W 034°04'0 2.6 24.7
2014-Jul-15 06:41N 27°46' W 034°04'0 0.0 24.7
2014-Jul-15 06:03N 27°46' W 034°04'1 5.3 24.7
2014-Jul-15 05:57N 27°46' W 034°03'0 0.0 24.7
2014-Jul-15 05:08N 27°46' W 034°03'1 7.3 24.7
2014-Jul-15 05:03N 27°46' W 034°03'0 0.0 24.7
2014-Jul-15 03:33N 27°46' W 034°03'0 8.8 24.7
2014-Jul-15 03:30N 27°46' W 034°03'1 5.1 24.7
2014-Jul-15 03:23N 27°47' W 034°03'0 0.0 24.7
2014-Jul-15 00:57N 27°47' W 034°03'0 0.1 24.8
2014-Jul-15 00:08N 27°47' W 034°03'1 1.1 24.9
2014-Jul-14 23:23N 27°47' W 034°04'0 5.8
2014-Jul-14 23:18N 27°46' W 034°03'1 6.9 25.1
2014-Jul-14 23:12N 27°47' W 034°03'0 0.0 25.1
2014-Jul-14 22:30N 27°47' W 034°03'0 3.1 25.1
2014-Jul-14 22:23N 27°47' W 034°03'0 0.0
2014-Jul-14 21:50N 27°47' W 034°03'0 0.1 25.2
2014-Jul-14 20:08N 27°48' W 034°03'0 1.6 25.4
2014-Jul-14 20:03N 27°47' W 034°03'0 0.0 25.4
2014-Jul-14 19:18N 27°47' W 034°03'   25.4
Track history (hours):
 
Tides and Currents Weather Stations Pressure Air Temp Water Temp Dewpoint Dewpoint Depression Visibility Wind Speed Wind Dir Waves Ship Positions

Ao Chao Yang 13516

Last reported at 2014-Jul-24 19:05 UTC. Time now 2014-Jul-24 20:09 UTC.
Position N 27°18' W 034°37'.

Length 20 m.

Type: Fishing. MMSI: 412469022.

Water temperature 26.2 ° C

Date/timePositionNaut miles runAvg speedWind from/ knotsBaromVisibWave heightAir tempDewpointWater temp
2014-Jul-24 19:05N 27°18' W 034°37'0 0.1 26.2
2014-Jul-24 17:39N 27°18' W 034°37'0 0.4 26.2
2014-Jul-24 17:26N 27°18' W 034°37'0 0.5 26.2
2014-Jul-24 16:36N 27°19' W 034°37'0 0.0 26.0
2014-Jul-24 14:53N 27°19' W 034°37'1 0.6 26.2
2014-Jul-24 13:41N 27°19' W 034°36'0 8.9 26.0
2014-Jul-24 13:38N 27°19' W 034°37'0 0.5 25.9
2014-Jul-24 12:44N 27°19' W 034°36'0 3.3 25.7
2014-Jul-24 12:38N 27°20' W 034°37'0 0.0 25.7
2014-Jul-24 12:03N 27°20' W 034°37'0 0.0 25.6
2014-Jul-24 12:00N 27°20' W 034°37'0 0.0 25.6
2014-Jul-24 11:57N 27°20' W 034°37'0 3.1 25.6
2014-Jul-24 11:53N 27°20' W 034°37'0 0.0 25.5
2014-Jul-24 11:06N 27°20' W 034°37'0 2.7 25.4
2014-Jul-24 11:02N 27°20' W 034°37'1 0.5 25.4
2014-Jul-24 09:44N 27°19' W 034°37'127.3 25.3
2014-Jul-24 09:41N 27°19' W 034°35'1 2.8 25.3
2014-Jul-24 09:17N 27°19' W 034°36'1 0.9 25.3
2014-Jul-24 08:02N 27°19' W 034°35'0 0.6 25.3
2014-Jul-24 07:39N 27°19' W 034°35'013.3 25.3
2014-Jul-24 07:38N 27°19' W 034°35'0 0.4 25.3
2014-Jul-24 06:26N 27°19' W 034°36'0 1.3 25.3
2014-Jul-24 06:20N 27°19' W 034°36'0 0.0 25.3
2014-Jul-24 06:05N 27°19' W 034°36'0 4.2 25.3
2014-Jul-24 06:02N 27°19' W 034°36'1 7.2 25.3
2014-Jul-24 05:57N 27°19' W 034°35'0 0.0 25.3
2014-Jul-24 05:08N 27°19' W 034°35'112.0 25.4
2014-Jul-24 05:05N 27°19' W 034°35'0 0.1 25.4
2014-Jul-24 03:35N 27°19' W 034°35'0 0.0 25.4
2014-Jul-24 03:32N 27°19' W 034°35'1 9.7 25.4
2014-Jul-24 03:26N 27°20' W 034°34'0 0.0 25.4
2014-Jul-24 01:11N 27°20' W 034°34'0 0.0 25.4
2014-Jul-24 00:26N 27°20' W 034°34'0 0.2 25.4
2014-Jul-23 23:38N 27°20' W 034°34'0 0.0 25.4
2014-Jul-23 23:33N 27°20' W 034°34'0 0.0 25.4
2014-Jul-23 22:45N 27°20' W 034°34'0 1.2 25.4
2014-Jul-23 22:39N 27°20' W 034°34'1 8.1 25.4
2014-Jul-23 22:35N 27°21' W 034°34'0 0.0 25.4
2014-Jul-23 22:06N 27°21' W 034°34'0 1.2 25.5
2014-Jul-23 21:51N 27°21' W 034°34'0 0.1 25.5
2014-Jul-23 20:20N 27°21' W 034°34'0 0.0 25.6
2014-Jul-23 19:47N 27°21' W 034°34'0 0.2 25.6
2014-Jul-23 19:17N 27°21' W 034°34'0 0.1 25.7
2014-Jul-23 18:06N 27°21' W 034°34'0 0.0 25.7
2014-Jul-23 17:36N 27°21' W 034°34'1 1.1 25.7
2014-Jul-23 16:45N 27°22' W 034°33'1 0.4 25.6
2014-Jul-23 15:06N 27°21' W 034°33'0 0.3 25.7
2014-Jul-23 13:59N 27°21' W 034°33'0 0.4 25.5
2014-Jul-23 13:08N 27°21' W 034°33'0 2.6 25.5
2014-Jul-23 13:00N 27°21' W 034°33'0 0.0 25.5
2014-Jul-23 12:23N 27°21' W 034°33'0 0.9 25.4
2014-Jul-23 12:15N 27°21' W 034°33'0 0.0 25.4
2014-Jul-23 11:27N 27°21' W 034°33'0 5.6 25.3
2014-Jul-23 11:24N 27°21' W 034°32'0 5.5 25.3
2014-Jul-23 11:21N 27°21' W 034°32'0 0.6 25.3
2014-Jul-23 10:39N 27°21' W 034°32'0 0.0 25.3
2014-Jul-23 09:47N 27°21' W 034°32'1 0.6 25.2
2014-Jul-23 08:26N 27°21' W 034°32'1 3.9 25.2
2014-Jul-23 08:08N 27°21' W 034°33'1 4.7 25.2
2014-Jul-23 07:53N 27°21' W 034°32'0 0.0 25.2
2014-Jul-23 07:48N 27°21' W 034°32'0 0.0 25.2
2014-Jul-23 06:51N 27°21' W 034°32'1 1.9 25.2
2014-Jul-23 06:29N 27°21' W 034°31'0 1.0 25.3
2014-Jul-23 06:17N 27°21' W 034°31'0 0.0 25.3
2014-Jul-23 06:14N 27°21' W 034°31'0 4.6 25.3
2014-Jul-23 06:08N 27°21' W 034°31'0 0.0 25.3
2014-Jul-23 05:23N 27°21' W 034°31'0 3.2 25.3
2014-Jul-23 05:15N 27°22' W 034°30'0 0.1 25.3
2014-Jul-23 03:47N 27°22' W 034°30'0 0.0 25.4
2014-Jul-23 03:42N 27°22' W 034°30'0 4.5 25.4
2014-Jul-23 03:38N 27°22' W 034°30'0 0.0 25.4
2014-Jul-23 00:45N 27°22' W 034°30'0 0.5 25.4
2014-Jul-22 23:51N 27°22' W 034°30'0 0.0 25.4
2014-Jul-22 23:06N 27°22' W 034°30'1 5.9 25.4
2014-Jul-22 23:00N 27°22' W 034°31'1 1.0 25.4
2014-Jul-22 22:18N 27°22' W 034°30'0 3.2 25.5
2014-Jul-22 22:15N 27°22' W 034°30'0 0.0
2014-Jul-22 22:08N 27°22' W 034°30'1 0.5 25.5
2014-Jul-22 20:53N 27°23' W 034°30'115.3 25.5
2014-Jul-22 20:50N 27°22' W 034°29'0 0.0 25.5
2014-Jul-22 20:11N 27°22' W 034°29'0 0.2 25.6
2014-Jul-22 19:29N 27°22' W 034°29'0 0.9 25.7
2014-Jul-22 19:12N 27°22' W 034°30'0 0.0 25.7
2014-Jul-22 18:30N 27°22' W 034°30'0 4.8 25.8
2014-Jul-22 18:29N 27°22' W 034°29'0 0.5 25.8
2014-Jul-22 17:48N 27°22' W 034°29'0 0.3 25.9
2014-Jul-22 16:57N 27°22' W 034°29'0 0.0 26.0
2014-Jul-22 16:53N 27°22' W 034°29'1 0.5 26.0
2014-Jul-22 15:17N 27°22' W 034°28'1 0.1 25.7
2014-Jul-22 11:48N 27°22' W 034°28'0 1.7 25.4
2014-Jul-22 11:42N 27°22' W 034°28'1 8.0 25.4
2014-Jul-22 11:38N 27°22' W 034°27'0 0.0
2014-Jul-22 11:02N 27°22' W 034°27'0 2.4 25.4
2014-Jul-22 10:59N 27°22' W 034°27'114.7 25.4
2014-Jul-22 10:56N 27°22' W 034°26'0 0.0 25.4
2014-Jul-22 08:53N 27°22' W 034°26'0 0.4 25.3
2014-Jul-22 08:03N 27°22' W 034°26'1 9.0 25.3
2014-Jul-22 07:59N 27°22' W 034°25'0 0.0 25.3
2014-Jul-22 07:14N 27°22' W 034°25'0 1.6 25.3
2014-Jul-22 07:02N 27°23' W 034°25'0 0.6 25.3
2014-Jul-22 06:27N 27°22' W 034°25'0 2.4 25.3
2014-Jul-22 06:24N 27°22' W 034°25'0 4.9 25.3
2014-Jul-22 06:18N 27°22' W 034°25'0 0.6 25.3
2014-Jul-22 05:32N 27°22' W 034°24'1 0.4 25.4
2014-Jul-22 03:53N 27°23' W 034°24'0 9.6 25.4
2014-Jul-22 03:50N 27°23' W 034°24'115.4 25.4
2014-Jul-22 03:45N 27°24' W 034°23'0 0.0 25.4
2014-Jul-22 01:05N 27°24' W 034°23'1 6.3 25.5
2014-Jul-22 01:00N 27°24' W 034°23'0 0.5 25.5
2014-Jul-22 00:18N 27°24' W 034°23'0 0.0 25.5
2014-Jul-21 23:23N 27°24' W 034°23'0 4.4 25.5
2014-Jul-21 23:20N 27°24' W 034°23'0 0.0 25.5
2014-Jul-21 22:38N 27°24' W 034°23'0 2.7 25.6
2014-Jul-21 22:30N 27°25' W 034°23'0 0.1 25.6
2014-Jul-21 21:41N 27°25' W 034°23'0 0.0 25.6
2014-Jul-21 21:32N 27°25' W 034°23'1 0.8 25.6
2014-Jul-21 20:35N 27°26' W 034°23'0 0.3 25.7
2014-Jul-21 19:51N 27°25' W 034°23'0 1.1 25.9
2014-Jul-21 19:38N 27°26' W 034°23'0 0.3 25.9
2014-Jul-21 18:53N 27°25' W 034°23'1 0.7 26.0
2014-Jul-21 18:00N 27°25' W 034°22'0 0.0 26.0
2014-Jul-21 17:11N 27°25' W 034°22'0 5.8 26.0
2014-Jul-21 17:06N 27°26' W 034°23'0 0.0 26.0
2014-Jul-21 16:17N 27°26' W 034°23'0 0.5 25.9
2014-Jul-21 15:29N 27°26' W 034°23'0 0.5 26.0
2014-Jul-21 15:23N 27°26' W 034°23'1 0.5 26.0
2014-Jul-21 13:48N 27°26' W 034°22'0 3.8 25.8
2014-Jul-21 13:42N 27°26' W 034°21'0 0.6 25.8
2014-Jul-21 13:05N 27°26' W 034°22'0 3.8 25.7
2014-Jul-21 12:59N 27°26' W 034°21'0 2.4 25.7
2014-Jul-21 12:53N 27°25' W 034°21'0 0.0
2014-Jul-21 12:08N 27°25' W 034°21'0 0.6 25.5
2014-Jul-21 12:02N 27°25' W 034°21'0 0.4 25.5
2014-Jul-21 11:23N 27°25' W 034°21'0 0.0 25.4
2014-Jul-21 10:29N 27°25' W 034°21'1 6.4 25.4
2014-Jul-21 10:23N 27°25' W 034°20'0 0.3
2014-Jul-21 09:17N 27°25' W 034°20'0 0.0 25.3
2014-Jul-21 09:12N 27°25' W 034°20'0 5.4 25.3
2014-Jul-21 09:08N 27°25' W 034°20'0 0.4 25.3
2014-Jul-21 08:17N 27°25' W 034°20'0 6.5 25.3
2014-Jul-21 08:14N 27°25' W 034°20'0 0.0 25.3
2014-Jul-21 08:11N 27°25' W 034°20'0 0.4 25.3
2014-Jul-21 07:36N 27°25' W 034°20'0 0.0 25.3
2014-Jul-21 07:33N 27°25' W 034°20'0 0.3 25.3
2014-Jul-21 06:36N 27°25' W 034°19'2 2.5 25.4
2014-Jul-21 05:59N 27°26' W 034°18'1 4.3 25.4
2014-Jul-21 05:47N 27°27' W 034°17'0 0.0 25.4
2014-Jul-21 05:44N 27°27' W 034°17'0 0.0 25.4
2014-Jul-21 05:39N 27°27' W 034°17'0 0.0 25.4
2014-Jul-21 04:08N 27°27' W 034°17'0 0.0 25.4
2014-Jul-21 04:05N 27°27' W 034°17'0 0.0 25.4
2014-Jul-21 03:57N 27°27' W 034°17'0 0.0
2014-Jul-21 01:24N 27°27' W 034°17'112.2 25.5
2014-Jul-21 01:21N 27°27' W 034°17'0 0.6 25.5
2014-Jul-21 00:38N 27°28' W 034°17'0 0.0 25.6
2014-Jul-20 23:45N 27°28' W 034°17'1 1.2
2014-Jul-20 22:53N 27°28' W 034°16'0 0.0 25.7
2014-Jul-20 22:48N 27°28' W 034°16'0 0.0 25.7
2014-Jul-20 22:06N 27°28' W 034°16'0 5.5 25.7
2014-Jul-20 22:02N 27°29' W 034°16'014.4 25.7
2014-Jul-20 22:00N 27°28' W 034°16'010.8 25.7
2014-Jul-20 21:59N 27°29' W 034°16'0 0.4 25.7
2014-Jul-20 20:57N 27°28' W 034°16'0 0.0 25.7
2014-Jul-20 20:14N 27°28' W 034°16'1 1.9 25.8
2014-Jul-20 19:50N 27°29' W 034°16'0 0.0 25.9
2014-Jul-20 19:21N 27°29' W 034°16'0 2.1 25.9
2014-Jul-20 19:14N 27°29' W 034°16'0 0.0 25.9
2014-Jul-20 18:08N 27°29' W 034°16'1 1.6 25.8
2014-Jul-20 17:39N 27°30' W 034°16'0 1.1 25.9
2014-Jul-20 17:18N 27°29' W 034°16'0 0.0 25.9
2014-Jul-20 17:15N 27°29' W 034°16'0 0.2 25.9
2014-Jul-20 16:27N 27°29' W 034°16'0 0.0 26.0
2014-Jul-20 15:38N 27°29' W 034°16'0 0.1 26.0
2014-Jul-20 14:08N 27°29' W 034°16'0 0.0 25.7
2014-Jul-20 13:53N 27°29' W 034°16'0 0.0 25.6
2014-Jul-20 13:21N 27°29' W 034°16'0 0.4 25.6
2014-Jul-20 12:29N 27°29' W 034°16'0 0.0 25.4
2014-Jul-20 12:23N 27°29' W 034°16'0 6.6 25.4
2014-Jul-20 12:21N 27°30' W 034°15'0 0.0 25.4
2014-Jul-20 11:42N 27°30' W 034°15'0 0.0 25.4
2014-Jul-20 11:38N 27°30' W 034°15'0 9.7
2014-Jul-20 11:35N 27°30' W 034°15'1 1.3 25.3
2014-Jul-20 10:50N 27°30' W 034°15'0 0.0 25.2
2014-Jul-20 10:42N 27°30' W 034°15'1 0.9 25.2
2014-Jul-20 09:42N 27°30' W 034°15'0 0.0 25.2
2014-Jul-20 09:39N 27°30' W 034°15'0 0.2 25.2
2014-Jul-20 08:27N 27°30' W 034°15'1 1.7 25.2
2014-Jul-20 08:05N 27°30' W 034°15'114.7 25.2
2014-Jul-20 08:02N 27°30' W 034°15'0 0.0 25.2
2014-Jul-20 06:50N 27°30' W 034°15'0 1.6 25.2
2014-Jul-20 06:47N 27°30' W 034°15'1 6.7 25.2
2014-Jul-20 06:42N 27°30' W 034°14'0 0.0 25.2
2014-Jul-20 06:38N 27°30' W 034°14'1 2.0
2014-Jul-20 06:23N 27°30' W 034°14'0 0.7 25.3
2014-Jul-20 05:53N 27°30' W 034°14'112.2 25.3
2014-Jul-20 05:50N 27°30' W 034°13'0 0.0 25.3
2014-Jul-20 05:08N 27°30' W 034°13'0 0.5 25.3
2014-Jul-20 04:18N 27°30' W 034°14'0 0.0 25.3
2014-Jul-20 04:15N 27°30' W 034°14'1 8.3 25.3
2014-Jul-20 04:08N 27°31' W 034°13'0 0.0 25.3
2014-Jul-20 00:57N 27°31' W 034°13'295.0 25.5
2014-Jul-20 00:56N 27°32' W 034°12'0 0.1 25.5
2014-Jul-20 00:08N 27°32' W 034°12'0 0.4 25.5
2014-Jul-19 23:20N 27°32' W 034°12'1 6.4 25.5
2014-Jul-19 23:12N 27°33' W 034°13'0 0.0 25.5
2014-Jul-19 22:30N 27°33' W 034°13'0 3.2 25.5
2014-Jul-19 22:23N 27°34' W 034°13'0 0.0 25.6
2014-Jul-19 20:44N 27°34' W 034°13'0 0.2 25.8
2014-Jul-19 20:00N 27°34' W 034°13'0 1.3 26.0
2014-Jul-19 19:45N 27°34' W 034°13'0 0.4 26.0
2014-Jul-19 19:12N 27°34' W 034°13'0 4.0 26.1
2014-Jul-19 19:06N 27°34' W 034°13'0 0.0 26.1
2014-Jul-19 18:23N 27°34' W 034°13'0 0.9 26.3
2014-Jul-19 18:05N 27°34' W 034°14'0 0.1 26.1
2014-Jul-19 17:29N 27°34' W 034°13'0 0.3 26.2
2014-Jul-19 16:38N 27°34' W 034°14'0 0.4 26.3
2014-Jul-19 15:51N 27°34' W 034°14'1 0.3 25.9
2014-Jul-19 13:36N 27°35' W 034°14'0 0.6 27.3
2014-Jul-19 12:47N 27°35' W 034°13'0 0.2 26.3
2014-Jul-19 12:03N 27°35' W 034°13'0 4.3 25.8
2014-Jul-19 11:57N 27°35' W 034°13'0 0.1 25.8
2014-Jul-19 11:08N 27°35' W 034°13'115.9 25.4
2014-Jul-19 11:05N 27°36' W 034°14'0 0.0 25.4
2014-Jul-19 08:38N 27°36' W 034°14'0 1.6 25.3
2014-Jul-19 08:26N 27°36' W 034°13'0 0.3 25.3
2014-Jul-19 06:59N 27°35' W 034°13'0 1.7 25.3
2014-Jul-19 06:53N 27°35' W 034°14'0 0.0 25.3
2014-Jul-19 06:41N 27°35' W 034°14'0 0.0 25.3
2014-Jul-19 06:08N 27°35' W 034°14'0 1.1 25.4
2014-Jul-19 06:05N 27°35' W 034°14'0 0.2 25.4
2014-Jul-19 05:20N 27°35' W 034°14'1 8.0 25.4
2014-Jul-19 05:12N 27°35' W 034°12'0 0.1 25.4
2014-Jul-19 04:27N 27°35' W 034°12'111.8 25.4
2014-Jul-19 04:21N 27°36' W 034°12'0 0.0 25.4
2014-Jul-19 04:18N 27°36' W 034°12'0 0.0 25.4
2014-Jul-19 02:41N 27°36' W 034°12'0 0.1 25.4
2014-Jul-19 00:23N 27°36' W 034°12'0 0.6 25.5
2014-Jul-18 23:41N 27°36' W 034°12'0 0.0 25.5
2014-Jul-18 23:36N 27°36' W 034°12'0 5.1 25.5
2014-Jul-18 23:32N 27°37' W 034°12'0 0.0 25.5
2014-Jul-18 22:48N 27°37' W 034°12'0 5.6 25.5
2014-Jul-18 22:44N 27°37' W 034°12'0 3.6 25.5
2014-Jul-18 22:38N 27°37' W 034°12'0 0.2 25.5
2014-Jul-18 21:56N 27°37' W 034°12'0 0.1
2014-Jul-18 20:06N 27°37' W 034°12'0 0.0 25.7
2014-Jul-18 19:36N 27°37' W 034°12'0 0.1 25.7
2014-Jul-18 18:35N 27°37' W 034°13'0 0.6 25.9
2014-Jul-18 18:30N 27°37' W 034°12'0 0.4 25.9
2014-Jul-18 17:39N 27°37' W 034°13'0 0.3 26.0
2014-Jul-18 16:51N 27°37' W 034°13'0 0.3 26.0
2014-Jul-18 16:02N 27°37' W 034°13'1 0.3 25.9
2014-Jul-18 14:20N 27°37' W 034°12'0 0.2 25.7
2014-Jul-18 12:23N 27°37' W 034°12'0 3.7 25.5
2014-Jul-18 12:17N 27°38' W 034°12'0 0.1 25.5
2014-Jul-18 11:29N 27°38' W 034°12'0 1.2 25.4
2014-Jul-18 11:26N 27°38' W 034°12'0 0.6 25.4
2014-Jul-18 10:44N 27°38' W 034°12'0 0.6 25.4
2014-Jul-18 10:39N 27°38' W 034°12'0 0.0 25.4
2014-Jul-18 09:06N 27°38' W 034°12'0 0.6 25.4
2014-Jul-18 08:53N 27°38' W 034°12'0 7.9 25.4
2014-Jul-18 08:50N 27°39' W 034°12'0 0.1 25.4
2014-Jul-18 07:27N 27°39' W 034°12'0 0.3 25.4
2014-Jul-18 07:08N 27°39' W 034°12'114.6 25.4
2014-Jul-18 07:05N 27°38' W 034°13'0 0.0 25.4
2014-Jul-18 06:18N 27°38' W 034°13'0 2.6 25.4
2014-Jul-18 06:12N 27°38' W 034°13'0 0.0 25.4
2014-Jul-18 05:32N 27°38' W 034°13'0 0.0 25.4
2014-Jul-18 05:29N 27°38' W 034°13'0 0.2 25.4
2014-Jul-18 04:38N 27°38' W 034°13'1 7.0 25.5
2014-Jul-18 04:32N 27°38' W 034°12'1 0.3 25.5
2014-Jul-18 02:53N 27°38' W 034°12'125.6 25.5
2014-Jul-18 02:51N 27°38' W 034°11'0 0.0 25.5
2014-Jul-18 00:48N 27°38' W 034°11'0 0.5 25.7
2014-Jul-17 23:59N 27°38' W 034°11'0 2.4
2014-Jul-17 23:56N 27°38' W 034°11'0 9.4 25.7
2014-Jul-17 23:53N 27°39' W 034°11'0 0.0 25.7
2014-Jul-17 23:08N 27°39' W 034°11'0 1.5 25.7
2014-Jul-17 23:00N 27°39' W 034°10'0 0.0 25.7
2014-Jul-17 22:21N 27°39' W 034°10'0 0.6 25.8
2014-Jul-17 21:53N 27°39' W 034°10'1 1.4 25.9
2014-Jul-17 21:23N 27°39' W 034°11'0 0.0
2014-Jul-17 20:06N 27°39' W 034°11'0 0.2
2014-Jul-17 18:53N 27°40' W 034°11'0 2.3 26.2
2014-Jul-17 18:45N 27°39' W 034°11'0 0.0 26.2
2014-Jul-17 17:47N 27°39' W 034°11'0 0.0 26.3
2014-Jul-17 17:03N 27°39' W 034°11'0 0.4 26.3
2014-Jul-17 16:08N 27°39' W 034°10'0 0.3 26.2
2014-Jul-17 14:30N 27°39' W 034°11'1 0.3 25.7
2014-Jul-17 12:45N 27°39' W 034°10'0 0.5 25.4
2014-Jul-17 11:45N 27°40' W 034°10'0 0.0 25.2
2014-Jul-17 11:05N 27°40' W 034°10'0 0.8 25.1
2014-Jul-17 10:59N 27°40' W 034°10'0 0.0 25.1
2014-Jul-17 10:08N 27°40' W 034°10'0 0.3 25.1
2014-Jul-17 09:17N 27°40' W 034°10'0 0.1 25.1
2014-Jul-17 07:53N 27°40' W 034°10'0 0.2 25.1
2014-Jul-17 07:33N 27°40' W 034°10'0 0.7 25.1
2014-Jul-17 07:21N 27°40' W 034°10'0 2.1 25.1
2014-Jul-17 07:18N 27°40' W 034°10'0 6.4 25.1
2014-Jul-17 07:15N 27°40' W 034°10'0 0.0 25.1
2014-Jul-17 06:29N 27°40' W 034°10'1 5.6 25.1
2014-Jul-17 06:23N 27°40' W 034°10'0 0.0
2014-Jul-17 06:17N 27°40' W 034°10'0 0.5 25.1
2014-Jul-17 05:57N 27°40' W 034°10'0 1.2 25.1
2014-Jul-17 05:41N 27°40' W 034°10'0 1.6 25.1
2014-Jul-17 05:35N 27°40' W 034°10'0 0.0 25.1
2014-Jul-17 04:48N 27°40' W 034°10'0 3.2 25.2
2014-Jul-17 04:42N 27°39' W 034°10'0 0.0 25.2
2014-Jul-17 03:08N 27°39' W 034°10'0 3.5 25.2
2014-Jul-17 03:03N 27°39' W 034°10'0 0.0 25.2
2014-Jul-17 01:08N 27°39' W 034°10'113.7 25.4
2014-Jul-17 01:05N 27°40' W 034°09'0 0.3 25.4
2014-Jul-17 00:21N 27°40' W 034°09'0 0.0 25.4
2014-Jul-16 23:30N 27°40' W 034°09'0 0.0 25.4
2014-Jul-16 23:23N 27°40' W 034°09'1 0.7 25.5
2014-Jul-16 22:38N 27°40' W 034°09'1 6.6 25.4
2014-Jul-16 22:33N 27°40' W 034°08'0 1.1 25.4
2014-Jul-16 22:24N 27°40' W 034°08'0 0.3 25.4
2014-Jul-16 21:48N 27°40' W 034°08'114.0 25.5
2014-Jul-16 21:44N 27°41' W 034°08'0 0.3 25.5
2014-Jul-16 20:56N 27°41' W 034°07'1 4.9 25.7
2014-Jul-16 20:47N 27°40' W 034°07'1 4.9 25.7
2014-Jul-16 20:38N 27°41' W 034°07'0 0.0 25.8
2014-Jul-16 19:20N 27°41' W 034°07'0 2.4 25.8
2014-Jul-16 19:12N 27°41' W 034°08'0 0.0 25.8
2014-Jul-16 18:53N 27°41' W 034°08'0 0.0 25.8
2014-Jul-16 18:51N 27°41' W 034°08'0 0.3 25.9
2014-Jul-16 17:38N 27°41' W 034°07'1 1.3 26.3
2014-Jul-16 17:15N 27°41' W 034°08'0 0.5 26.3
2014-Jul-16 16:23N 27°41' W 034°07'0 0.0 26.3
2014-Jul-16 16:18N 27°41' W 034°07'0 0.3 26.3
2014-Jul-16 14:42N 27°41' W 034°07'0 0.2 26.0
2014-Jul-16 13:06N 27°42' W 034°07'0 1.1 25.4
2014-Jul-16 13:00N 27°42' W 034°07'0 0.2 25.4
2014-Jul-16 12:08N 27°42' W 034°07'0 5.8 25.1
2014-Jul-16 12:05N 27°42' W 034°07'0 0.1 25.1
2014-Jul-16 11:21N 27°42' W 034°07'014.4
2014-Jul-16 11:20N 27°42' W 034°07'0 0.0 25.0
2014-Jul-16 10:32N 27°42' W 034°07'0 5.2 24.8
2014-Jul-16 10:27N 27°42' W 034°07'0 0.0 24.8
2014-Jul-16 09:38N 27°42' W 034°07'1 0.4 24.8
2014-Jul-16 07:33N 27°42' W 034°06'0 0.0 24.7
2014-Jul-16 07:30N 27°42' W 034°06'1 7.8 24.7
2014-Jul-16 07:26N 27°42' W 034°07'0 0.0 24.7
2014-Jul-16 06:50N 27°42' W 034°07'0 0.9 24.8
2014-Jul-16 06:21N 27°42' W 034°07'0 0.1 24.8
2014-Jul-16 05:53N 27°42' W 034°07'0 0.1 24.8
2014-Jul-16 05:03N 27°42' W 034°07'0 1.1 24.8
2014-Jul-16 05:00N 27°42' W 034°07'0 2.4 24.8
2014-Jul-16 04:51N 27°42' W 034°06'0 0.0 24.8
2014-Jul-16 03:23N 27°42' W 034°06'0 0.0 24.9
2014-Jul-16 03:20N 27°42' W 034°06'1 5.2 24.9
2014-Jul-16 03:14N 27°42' W 034°06'0 0.0 24.9
2014-Jul-16 01:26N 27°42' W 034°06'1 0.7 25.1
2014-Jul-16 00:42N 27°43' W 034°06'0 0.1 25.1
2014-Jul-15 23:51N 27°43' W 034°06'0 0.3 25.2
2014-Jul-15 23:03N 27°43' W 034°05'0 0.0 25.2
2014-Jul-15 22:08N 27°43' W 034°05'117.6 25.3
2014-Jul-15 22:05N 27°43' W 034°05'0 0.1 25.3
2014-Jul-15 21:08N 27°43' W 034°05'0 0.0
2014-Jul-15 19:44N 27°43' W 034°05'0 1.1 25.6
2014-Jul-15 19:33N 27°44' W 034°05'0 0.0 25.7
2014-Jul-15 19:08N 27°44' W 034°05'0 0.3 25.7
2014-Jul-15 18:02N 27°43' W 034°05'0 0.7 25.9
2014-Jul-15 17:27N 27°44' W 034°04'0 4.0 25.7
2014-Jul-15 17:23N 27°44' W 034°05'0 0.3 25.6
2014-Jul-15 16:35N 27°44' W 034°04'1 0.5 25.5
2014-Jul-15 14:53N 27°44' W 034°04'0 0.0 25.4
2014-Jul-15 14:11N 27°44' W 034°04'0 0.0 25.2
2014-Jul-15 13:23N 27°44' W 034°04'0 0.3 25.1
2014-Jul-15 12:29N 27°45' W 034°04'0 3.6 25.0
2014-Jul-15 12:23N 27°45' W 034°04'0 0.0
2014-Jul-15 11:47N 27°45' W 034°04'0 2.4 24.8
2014-Jul-15 11:39N 27°45' W 034°04'0 0.0 24.8
2014-Jul-15 10:53N 27°45' W 034°04'1 7.2 24.7
2014-Jul-15 10:48N 27°45' W 034°05'1 0.4 24.7
2014-Jul-15 09:00N 27°45' W 034°04'0 0.7 24.7
2014-Jul-15 08:26N 27°45' W 034°04'0 0.1 24.7
2014-Jul-15 07:42N 27°45' W 034°04'0 0.0 24.7
2014-Jul-15 07:21N 27°45' W 034°04'0 0.4 24.7
2014-Jul-15 06:45N 27°46' W 034°04'0 2.6 24.7
2014-Jul-15 06:41N 27°46' W 034°04'0 0.0 24.7
2014-Jul-15 06:03N 27°46' W 034°04'1 5.3 24.7
2014-Jul-15 05:57N 27°46' W 034°03'0 0.0 24.7
2014-Jul-15 05:08N 27°46' W 034°03'1 7.3 24.7
2014-Jul-15 05:03N 27°46' W 034°03'0 0.0 24.7
2014-Jul-15 03:33N 27°46' W 034°03'0 8.8 24.7
2014-Jul-15 03:30N 27°46' W 034°03'1 5.1 24.7
2014-Jul-15 03:23N 27°47' W 034°03'0 0.0 24.7
2014-Jul-15 00:57N 27°47' W 034°03'0 0.1 24.8
2014-Jul-15 00:08N 27°47' W 034°03'1 1.1 24.9
2014-Jul-14 23:23N 27°47' W 034°04'0 5.8
2014-Jul-14 23:18N 27°46' W 034°03'1 6.9 25.1
2014-Jul-14 23:12N 27°47' W 034°03'0 0.0 25.1
2014-Jul-14 22:30N 27°47' W 034°03'0 3.1 25.1
2014-Jul-14 22:23N 27°47' W 034°03'0 0.0
2014-Jul-14 21:50N 27°47' W 034°03'0 0.1 25.2
2014-Jul-14 20:08N 27°48' W 034°03'0 1.6 25.4
2014-Jul-14 20:03N 27°47' W 034°03'0 0.0 25.4
2014-Jul-14 19:18N 27°47' W 034°03'   25.4

Dump ship's entire track history